Time;durP1;ratioP1;P1;durP2;ratioP2;P2;SDS_P1;SDS_P2;PMS_P1;PMS_P2;Temp;Humidity;BMP_temperature;BMP_pressure;BME280_temperature;BME280_humidity;BME280_pressure;Samples;Min_cycle;Max_cycle;Signal;HPM_P1;HPM_P2
2021/12/22 00:00:20;;;;;;;;;3.25;3.25;;;;;-7.62;58.61;101536.06;5021899;28;8854;-76
2021/12/22 00:03:18;;;;;;;;;4.00;4.00;;;;;-7.33;57.99;101531.59;5022007;28;8861;-76
2021/12/22 00:06:20;;;;;;;;;6.50;4.50;;;;;-7.30;58.36;101536.56;5015561;28;8833;-77
2021/12/22 00:09:16;;;;;;;;;3.50;3.50;;;;;-7.39;57.77;101537.72;5022035;28;8838;-77
2021/12/22 00:12:12;;;;;;;;;6.75;6.50;;;;;-7.54;57.83;101542.34;5036388;28;8842;-77
2021/12/22 00:15:09;;;;;;;;;3.00;3.00;;;;;-7.30;57.71;101540.09;5035047;28;8876;-77
2021/12/22 00:18:06;;;;;;;;;2.50;2.50;;;;;-7.46;58.16;101544.88;5021791;28;8924;-77
2021/12/22 00:21:03;;;;;;;;;4.50;4.00;;;;;-7.61;58.56;101551.16;5021833;28;8849;-77
2021/12/22 00:23:59;;;;;;;;;3.25;3.25;;;;;-7.65;59.44;101557.94;5022925;28;9629;-77
2021/12/22 00:26:56;;;;;;;;;4.00;4.00;;;;;-7.68;59.95;101549.41;5021166;28;8873;-77
2021/12/22 00:29:53;;;;;;;;;4.50;4.50;;;;;-7.46;60.32;101550.25;5034688;28;8853;-77
2021/12/22 00:32:53;;;;;;;;;3.75;3.75;;;;;-7.49;60.58;101558.72;5021413;28;8856;-77
2021/12/22 00:35:49;;;;;;;;;7.00;7.00;;;;;-7.42;60.82;101552.41;5034520;28;8834;-76
2021/12/22 00:38:45;;;;;;;;;6.00;6.00;;;;;-7.40;61.70;101557.56;5034116;28;8869;-76
2021/12/22 00:41:41;;;;;;;;;4.00;4.00;;;;;-7.32;61.47;101555.59;5021204;28;8849;-78
2021/12/22 00:44:36;;;;;;;;;4.75;4.75;;;;;-7.35;62.23;101557.84;5034541;28;8845;-78
2021/12/22 00:47:32;;;;;;;;;5.00;4.25;;;;;-7.58;61.83;101556.16;5035109;28;8915;-76
2021/12/22 00:50:28;;;;;;;;;3.25;3.25;;;;;-7.47;62.19;101557.50;5021037;28;8845;-77
2021/12/22 00:53:24;;;;;;;;;2.50;2.50;;;;;-7.28;61.83;101554.19;5021015;28;9755;-77
2021/12/22 00:56:20;;;;;;;;;4.00;4.00;;;;;-7.35;61.76;101555.16;5017885;28;8842;-77
2021/12/22 00:59:17;;;;;;;;;1.00;1.00;;;;;-7.17;61.69;101558.22;5033036;28;8884;-76
2021/12/22 01:02:16;;;;;;;;;3.50;3.50;;;;;-7.21;61.63;101543.47;5020935;28;8861;-77
2021/12/22 01:05:15;;;;;;;;;3.00;3.00;;;;;-7.13;61.86;101550.56;5033823;28;8833;-77
2021/12/22 01:08:10;;;;;;;;;5.00;5.00;;;;;-7.19;62.23;101546.00;5020222;28;8826;-76
2021/12/22 01:11:07;;;;;;;;;0.00;0.00;;;;;-7.21;62.41;101558.78;5034246;28;8845;-77
2021/12/22 01:14:03;;;;;;;;;13.75;8.00;;;;;-7.18;62.59;101553.84;5020866;28;8911;-76
2021/12/22 01:17:01;;;;;;;;;3.00;3.00;;;;;-7.32;62.88;101555.59;5035238;28;9645;-77
2021/12/22 01:20:03;;;;;;;;;3.00;3.00;;;;;-7.30;63.47;101560.75;5000804;28;8884;-77
2021/12/22 01:23:02;;;;;;;;;3.75;3.75;;;;;-7.23;63.56;101560.81;5013627;28;9593;-76
2021/12/22 01:25:58;;;;;;;;;1.00;1.00;;;;;-7.16;64.46;101559.03;5032275;28;8842;-77
2021/12/22 01:28:54;;;;;;;;;1.00;1.00;;;;;-7.11;64.02;101549.38;5033604;28;8884;-76
2021/12/22 01:31:50;;;;;;;;;3.00;3.00;;;;;-7.29;64.50;101552.50;5046600;28;8945;-77
2021/12/22 01:34:45;;;;;;;;;5.50;5.50;;;;;-7.49;64.88;101553.34;5020856;28;8857;-77
2021/12/22 01:37:41;;;;;;;;;6.75;6.75;;;;;-7.17;65.68;101552.81;5032522;28;8876;-77
2021/12/22 01:40:43;;;;;;;;;6.00;4.00;;;;;-7.04;64.46;101555.66;5033191;28;8846;-77
2021/12/22 01:43:39;;;;;;;;;4.00;4.00;;;;;-7.05;64.40;101551.28;5033321;28;8916;-77
2021/12/22 01:49:53;;;;;;;;;5.00;5.00;;;;;-7.15;64.51;101549.94;5033188;28;8854;-76
2021/12/22 01:52:48;;;;;;;;;3.75;3.75;;;;;-7.19;65.03;101552.19;5034288;28;8915;-77
2021/12/22 01:55:44;;;;;;;;;8.50;8.50;;;;;-7.15;64.72;101553.47;5019491;28;8864;-77
2021/12/22 01:58:43;;;;;;;;;4.50;4.50;;;;;-7.36;64.27;101557.00;5029068;28;8856;-77
2021/12/22 02:01:39;;;;;;;;;6.75;6.00;;;;;-7.08;63.27;101551.66;5032902;28;8830;-77
2021/12/22 02:04:38;;;;;;;;;6.00;6.00;;;;;-7.03;63.58;101551.91;5019907;28;9623;-77
2021/12/22 02:07:33;;;;;;;;;4.00;4.00;;;;;-7.10;63.66;101551.03;5013182;28;8879;-77
2021/12/22 02:10:37;;;;;;;;;6.00;5.50;;;;;-7.30;63.59;101540.09;5000028;28;8922;-77
2021/12/22 02:13:37;;;;;;;;;6.75;6.75;;;;;-7.39;63.87;101543.09;5014499;28;8848;-77
2021/12/22 02:16:37;;;;;;;;;6.50;6.50;;;;;-7.08;63.01;101543.59;4999265;28;8901;-76
2021/12/22 02:19:41;;;;;;;;;3.75;3.75;;;;;-7.13;62.80;101547.88;4986128;28;8844;-76
2021/12/22 02:22:39;;;;;;;;;3.50;3.50;;;;;-7.12;63.41;101555.78;5012679;28;8844;-77
2021/12/22 02:25:43;;;;;;;;;9.50;9.50;;;;;-7.31;64.08;101559.94;5013012;28;8863;-78
2021/12/22 02:28:44;;;;;;;;;8.25;7.00;;;;;-7.34;64.44;101556.81;5012173;28;8836;-77
2021/12/22 02:31:44;;;;;;;;;8.00;6.75;;;;;-7.26;64.46;101555.84;5012691;28;8879;-77
2021/12/22 02:34:47;;;;;;;;;9.00;7.00;;;;;-7.20;63.97;101555.91;5024398;28;8840;-76
2021/12/22 02:37:45;;;;;;;;;8.00;8.00;;;;;-7.20;64.29;101563.97;5001027;28;8832;-76
2021/12/22 02:40:47;;;;;;;;;7.00;6.00;;;;;-7.15;63.65;101576.81;5024284;28;8883;-76
2021/12/22 02:43:49;;;;;;;;;6.00;6.00;;;;;-7.36;63.72;101578.50;5013740;28;8852;-75
2021/12/22 02:46:44;;;;;;;;;9.00;9.00;;;;;-7.18;62.95;101582.59;5012160;28;8938;-75
2021/12/22 02:49:40;;;;;;;;;6.00;6.00;;;;;-7.42;63.44;101590.00;4999938;28;8866;-76
2021/12/22 02:53:26;;;;;;;;;5.00;5.00;;;;;-7.23;63.05;101599.28;5025001;28;8886;-76
2021/12/22 02:56:00;;;;;;;;;3.75;3.75;;;;;-7.29;62.52;101606.25;5004096;28;8847;-75
2021/12/22 03:00:22;;;;;;;;;8.50;8.50;;;;;-7.18;61.95;101609.47;5003212;28;8856;-75
2021/12/22 03:02:34;;;;;;;;;5.50;5.50;;;;;-7.33;63.23;101606.84;5011802;28;8860;-76
2021/12/22 03:05:29;;;;;;;;;6.25;6.25;;;;;-7.31;63.06;101607.47;5015104;28;8892;-76
2021/12/22 03:08:25;;;;;;;;;4.00;4.00;;;;;-7.35;62.75;101617.78;5014448;28;8860;-76
2021/12/22 03:11:21;;;;;;;;;5.00;5.00;;;;;-7.53;62.63;101609.31;5013666;28;8852;-76
2021/12/22 03:14:18;;;;;;;;;4.00;4.00;;;;;-7.43;62.78;101609.84;5023784;28;8840;-76
2021/12/22 03:17:14;;;;;;;;;3.50;3.50;;;;;-7.70;62.62;101607.88;5012281;28;8863;-77
2021/12/22 03:20:13;;;;;;;;;4.00;4.00;;;;;-7.65;63.20;101617.03;5023656;28;8927;-76
2021/12/22 03:23:08;;;;;;;;;7.00;7.00;;;;;-7.68;63.24;101617.41;5023744;28;8844;-77
2021/12/22 03:26:04;;;;;;;;;4.00;4.00;;;;;-7.56;63.61;101628.50;5000504;28;8844;-76
2021/12/22 03:29:00;;;;;;;;;5.00;5.00;;;;;-7.56;63.32;101629.34;4980234;28;8831;-76
2021/12/22 03:31:55;;;;;;;;;7.00;7.00;;;;;-7.44;63.17;101618.91;4979690;28;8940;-77
2021/12/22 03:34:51;;;;;;;;;16.25;11.25;;;;;-7.40;63.21;101627.44;4981801;28;8973;-77
2021/12/22 03:37:51;;;;;;;;;12.25;12.25;;;;;-7.30;63.36;101630.66;4998852;28;8852;-76
2021/12/22 03:40:47;;;;;;;;;7.00;7.00;;;;;-7.33;63.67;101631.88;4998798;28;9631;-77
2021/12/22 03:43:43;;;;;;;;;0.25;0.25;;;;;-7.14;63.07;101643.00;4998942;28;8844;-76
2021/12/22 03:46:39;;;;;;;;;8.00;7.00;;;;;-7.37;63.09;101653.94;5000283;28;8844;-77
2021/12/22 03:49:35;;;;;;;;;6.25;6.25;;;;;-7.36;63.19;101652.91;5023411;28;8844;-77
2021/12/22 03:52:31;;;;;;;;;6.50;6.50;;;;;-7.52;63.29;101658.50;5013738;28;8820;-77
2021/12/22 03:55:26;;;;;;;;;10.00;10.00;;;;;-7.43;63.40;101673.53;5023652;28;8963;-75
2021/12/22 03:58:23;;;;;;;;;6.25;6.25;;;;;-7.37;63.38;101672.75;5010945;28;8848;-75
2021/12/22 04:01:18;;;;;;;;;7.50;6.50;;;;;-7.35;62.66;101663.50;5015414;28;9649;-76
2021/12/22 04:04:17;;;;;;;;;7.00;7.00;;;;;-7.40;61.84;101686.56;5014958;28;8904;-76
2021/12/22 04:07:13;;;;;;;;;11.00;10.50;;;;;-7.66;61.64;101689.75;5044342;28;8830;-76
2021/12/22 04:10:23;;;;;;;;;5.25;3.00;;;;;-7.64;61.40;101688.53;5034587;28;8838;-76
2021/12/22 04:13:19;;;;;;;;;6.00;4.00;;;;;-7.69;60.75;101693.63;5034912;28;8953;-76
2021/12/22 04:16:15;;;;;;;;;7.25;7.25;;;;;-7.82;61.52;101708.72;5021527;28;8854;-76
2021/12/22 04:19:11;;;;;;;;;7.00;7.00;;;;;-7.67;61.44;101696.13;5021492;28;8850;-75
2021/12/22 04:22:07;;;;;;;;;6.75;6.25;;;;;-7.56;60.45;101698.38;5034200;28;8923;-76
2021/12/22 04:25:05;;;;;;;;;9.00;9.00;;;;;-7.67;60.95;101705.03;5034636;28;8856;-76
2021/12/22 04:28:06;;;;;;;;;7.50;7.50;;;;;-7.52;60.57;101709.56;5035232;28;9681;-77
2021/12/22 04:31:01;;;;;;;;;7.00;7.00;;;;;-7.60;61.02;101715.84;5046174;28;8932;-76
2021/12/22 04:33:57;;;;;;;;;7.00;7.00;;;;;-7.59;60.76;101715.69;5034390;28;8830;-76
2021/12/22 04:36:52;;;;;;;;;6.00;6.00;;;;;-7.56;60.59;101725.22;5035024;28;8857;-73
2021/12/22 04:39:48;;;;;;;;;7.75;5.50;;;;;-7.93;60.41;101720.78;5046078;28;8834;-76
2021/12/22 04:42:45;;;;;;;;;11.00;11.00;;;;;-7.74;60.41;101732.81;5021289;28;8878;-76
2021/12/22 04:45:41;;;;;;;;;9.00;9.00;;;;;-7.75;60.39;101734.66;5034335;28;8989;-75
2021/12/22 04:48:37;;;;;;;;;11.50;11.50;;;;;-7.77;60.11;101742.09;5034228;28;8830;-75
2021/12/22 04:51:35;;;;;;;;;20.50;12.25;;;;;-7.76;59.43;101749.13;5034302;28;8854;-75
2021/12/22 04:54:41;;;;;;;;;5.50;5.50;;;;;-7.58;59.31;101749.59;5034260;28;8858;-75
2021/12/22 04:57:36;;;;;;;;;4.50;4.50;;;;;-7.57;59.27;101751.25;5034284;28;8842;-75
2021/12/22 05:00:35;;;;;;;;;6.00;6.00;;;;;-7.64;59.08;101763.78;5033680;28;9055;-76
2021/12/22 05:03:30;;;;;;;;;4.00;4.00;;;;;-7.85;59.25;101760.97;5021211;28;8849;-75
2021/12/22 05:06:26;;;;;;;;;4.50;4.50;;;;;-7.78;59.75;101767.28;5033583;28;8972;-74
2021/12/22 05:09:22;;;;;;;;;5.50;5.50;;;;;-7.74;59.99;101773.97;5033832;28;8956;-75
2021/12/22 05:12:18;;;;;;;;;6.00;6.00;;;;;-7.66;60.13;101773.03;5032884;28;8974;-75
2021/12/22 05:15:19;;;;;;;;;5.00;5.00;;;;;-7.86;60.65;101781.63;5045172;28;8865;-74
2021/12/22 05:18:36;;;;;;;;;6.00;6.00;;;;;-7.86;60.93;101780.78;5032859;28;8838;-75
2021/12/22 05:21:30;;;;;;;;;6.25;6.00;;;;;-7.76;60.29;101775.97;5033657;28;8912;-74
2021/12/22 05:24:25;;;;;;;;;11.75;9.25;;;;;-7.94;60.68;101778.19;5034422;28;8869;-74
2021/12/22 05:27:21;;;;;;;;;6.00;6.00;;;;;-7.90;61.59;101792.91;5044966;28;8860;-74
2021/12/22 05:30:17;;;;;;;;;6.75;6.75;;;;;-7.90;61.67;101807.19;5034833;28;8846;-74
2021/12/22 05:33:13;;;;;;;;;12.75;12.75;;;;;-7.78;61.45;101806.72;5033143;28;9599;-73
2021/12/22 05:36:09;;;;;;;;;6.75;6.75;;;;;-7.64;61.35;101811.28;5032995;28;9064;-74
2021/12/22 05:39:05;;;;;;;;;6.75;6.00;;;;;-7.60;61.09;101809.91;5033530;28;8874;-74
2021/12/22 05:42:01;;;;;;;;;3.25;3.00;;;;;-7.41;60.83;101813.91;5044878;28;8951;-75
2021/12/22 05:44:57;;;;;;;;;8.00;8.00;;;;;-7.42;60.92;101809.56;5033459;28;8954;-74
2021/12/22 05:47:53;;;;;;;;;15.00;14.50;;;;;-7.41;61.16;101821.97;5020181;28;8838;-74
2021/12/22 05:50:51;;;;;;;;;12.25;9.50;;;;;-7.52;61.74;101825.09;5033282;28;8818;-74
2021/12/22 05:53:47;;;;;;;;;12.75;12.50;;;;;-7.51;62.04;101824.94;5019982;28;8838;-74
2021/12/22 05:56:42;;;;;;;;;15.00;12.50;;;;;-7.52;62.55;101828.63;5034823;28;8838;-74
2021/12/22 05:59:38;;;;;;;;;8.00;8.00;;;;;-7.56;63.37;101835.41;5033127;28;8826;-74
2021/12/22 06:02:34;;;;;;;;;6.25;6.25;;;;;-7.63;63.62;101829.91;5028486;28;8939;-74
2021/12/22 06:05:29;;;;;;;;;10.50;10.50;;;;;-7.28;63.26;101830.22;5019490;28;8854;-74
2021/12/22 06:08:25;;;;;;;;;9.75;9.75;;;;;-7.30;62.63;101837.63;5034547;28;8866;-74
2021/12/22 06:11:20;;;;;;;;;10.00;10.00;;;;;-7.15;62.29;101846.53;5032693;28;8927;-74
2021/12/22 06:14:16;;;;;;;;;10.50;10.50;;;;;-7.23;63.20;101845.78;5032788;28;8868;-74
2021/12/22 06:17:12;;;;;;;;;14.50;12.75;;;;;-7.24;63.25;101850.31;5034685;28;8953;-74
2021/12/22 06:20:08;;;;;;;;;12.25;12.25;;;;;-7.18;62.19;101859.50;5034681;28;9579;-74
2021/12/22 06:23:04;;;;;;;;;8.25;8.00;;;;;-7.29;62.79;101858.09;5032578;28;9027;-74
2021/12/22 06:26:00;;;;;;;;;10.00;10.00;;;;;-7.18;63.08;101857.66;5021120;28;9587;-76
2021/12/22 06:28:56;;;;;;;;;11.00;9.75;;;;;-7.06;62.35;101866.91;5031043;28;8853;-74
2021/12/22 06:31:52;;;;;;;;;8.00;8.00;;;;;-7.14;63.23;101863.47;5020829;28;8940;-74
2021/12/22 06:34:47;;;;;;;;;9.75;9.75;;;;;-6.92;62.56;101865.25;5031987;28;9589;-74
2021/12/22 06:37:44;;;;;;;;;19.75;12.75;;;;;-6.97;63.01;101870.38;5033793;28;9661;-73
2021/12/22 06:40:40;;;;;;;;;6.75;6.00;;;;;-7.04;63.28;101872.13;5033733;28;8834;-74
2021/12/22 06:43:35;;;;;;;;;13.00;13.00;;;;;-6.86;63.46;101869.88;5033734;28;8862;-75
2021/12/22 06:46:32;;;;;;;;;12.25;12.25;;;;;-6.55;62.24;101874.19;5032809;28;8830;-75
2021/12/22 06:49:27;;;;;;;;;16.50;15.50;;;;;-6.55;62.45;101864.25;5018876;28;8871;-75
2021/12/22 06:52:23;;;;;;;;;16.00;13.25;;;;;-6.48;61.98;101867.84;5019765;28;8822;-75
2021/12/22 06:55:19;;;;;;;;;16.25;14.25;;;;;-6.35;62.33;101869.03;5023251;28;8884;-75
2021/12/22 06:58:14;;;;;;;;;14.25;14.25;;;;;-6.28;62.21;101873.47;5031295;28;8853;-74
2021/12/22 07:01:16;;;;;;;;;15.50;15.50;;;;;-6.38;61.93;101869.41;5031776;28;8965;-75
2021/12/22 07:04:12;;;;;;;;;9.50;9.50;;;;;-6.33;61.09;101873.19;5031746;28;8897;-75
2021/12/22 07:07:08;;;;;;;;;20.00;14.50;;;;;-6.23;60.99;101872.88;5032041;28;9583;-75
2021/12/22 07:10:07;;;;;;;;;10.00;10.00;;;;;-6.08;60.39;101872.81;5032019;28;8984;-75
2021/12/22 07:13:03;;;;;;;;;15.00;15.00;;;;;-6.19;59.93;101879.56;4992927;28;8859;-75
2021/12/22 07:15:59;;;;;;;;;13.25;12.00;;;;;-6.11;59.94;101882.13;5019472;28;8923;-75
2021/12/22 07:18:56;;;;;;;;;18.25;17.75;;;;;-5.95;60.28;101878.34;5032029;28;8904;-75
2021/12/22 07:21:53;;;;;;;;;17.50;15.75;;;;;-5.62;59.58;101873.22;5031910;28;8846;-74
2021/12/22 07:24:49;;;;;;;;;7.00;7.00;;;;;-5.75;59.50;101875.78;5031712;28;9606;-74
2021/12/22 07:27:45;;;;;;;;;11.75;11.25;;;;;-5.76;59.24;101879.50;5033248;28;8842;-75
2021/12/22 07:30:41;;;;;;;;;12.00;12.00;;;;;-5.77;58.76;101883.25;5020200;28;8850;-75
2021/12/22 07:33:37;;;;;;;;;12.00;12.00;;;;;-5.55;58.77;101884.88;5031306;28;8837;-76
2021/12/22 07:36:40;;;;;;;;;16.00;15.25;;;;;-5.23;58.62;101888.00;5034196;28;8920;-75
2021/12/22 07:39:36;;;;;;;;;21.25;20.75;;;;;-5.20;58.11;101893.84;5036413;28;8872;-76
2021/12/22 07:42:33;;;;;;;;;13.50;13.50;;;;;-4.83;57.97;101894.47;5016831;28;8874;-76
2021/12/22 07:45:29;;;;;;;;;16.50;15.00;;;;;-4.58;57.40;101892.94;5024078;28;8857;-76
2021/12/22 07:48:25;;;;;;;;;3.75;3.75;;;;;-4.57;56.85;101897.31;5036926;28;8846;-75
2021/12/22 07:51:20;;;;;;;;;11.75;11.75;;;;;-4.63;56.49;101903.50;5024304;28;8959;-76
2021/12/22 07:54:16;;;;;;;;;8.25;8.25;;;;;-4.50;56.11;101900.88;5043195;28;8854;-76
2021/12/22 07:57:11;;;;;;;;;17.50;15.25;;;;;-4.23;56.25;101901.78;5021797;28;8825;-76
2021/12/22 08:00:07;;;;;;;;;14.50;14.50;;;;;-3.84;55.04;101910.19;5045117;28;8920;-75
2021/12/22 08:03:03;;;;;;;;;12.00;12.00;;;;;-4.08;55.05;101917.00;5034677;28;8833;-76
2021/12/22 08:05:59;;;;;;;;;9.00;9.00;;;;;-3.92;54.71;101908.50;5034950;28;9617;-76
2021/12/22 08:08:55;;;;;;;;;15.00;14.00;;;;;-3.50;53.30;101906.47;5035006;28;8830;-76
2021/12/22 08:11:50;;;;;;;;;10.25;10.25;;;;;-3.24;53.36;101906.44;5016787;28;8844;-75
2021/12/22 08:14:46;;;;;;;;;15.50;15.50;;;;;-3.37;51.92;101904.63;5003808;28;8863;-76
2021/12/22 09:27:50;;;;;;;;;12.33;12.33;;;;;-2.45;46.70;101867.50;5053558;28;8857;-75
2021/12/22 09:30:18;;;;;;;;;15.67;14.33;;;;;-2.26;46.52;101868.44;5045938;28;8872;-75
2021/12/22 09:33:00;;;;;;;;;12.67;12.67;;;;;-1.87;46.84;101869.25;5047331;28;8866;-74
2021/12/22 09:35:55;;;;;;;;;15.00;15.00;;;;;-1.84;44.34;101871.50;5053725;28;8965;-74
2021/12/22 09:38:51;;;;;;;;;18.33;18.33;;;;;-2.64;44.60;101869.25;5052939;28;8863;-75
2021/12/22 09:41:47;;;;;;;;;9.00;7.00;;;;;-2.99;45.19;101881.44;5020854;28;8972;-75
2021/12/22 09:44:46;;;;;;;;;9.67;9.67;;;;;-3.18;45.78;101880.44;5038110;28;8855;-74
2021/12/22 09:48:01;;;;;;;;;7.67;7.67;;;;;-3.09;45.52;101880.00;5027400;28;8853;-75
2021/12/22 09:53:55;;;;;;;;;8.67;8.67;;;;;-3.20;47.19;101885.25;5033441;28;8826;-75
2021/12/22 09:56:51;;;;;;;;;9.00;9.00;;;;;-3.54;46.04;101881.72;5034410;28;8838;-76
2021/12/22 09:59:51;;;;;;;;;13.00;13.00;;;;;-3.48;46.13;101883.59;5044273;28;8848;-75
2021/12/22 10:02:47;;;;;;;;;7.67;7.67;;;;;-3.22;45.11;101880.03;5028428;28;8850;-75
2021/12/22 10:05:44;;;;;;;;;7.00;7.00;;;;;-3.01;45.31;101884.34;5033659;28;8842;-75
2021/12/22 10:09:02;;;;;;;;;10.00;10.00;;;;;-2.39;44.78;101884.75;5032883;28;9642;-75
2021/12/22 10:12:04;;;;;;;;;7.67;7.67;;;;;-2.05;44.88;101876.25;5033400;28;8834;-74
2021/12/22 10:15:03;;;;;;;;;4.67;4.67;;;;;-1.56;42.95;101876.50;5032503;28;8842;-74
2021/12/22 10:18:08;;;;;;;;;6.67;5.33;;;;;-0.97;42.55;101875.94;5033358;28;8856;-75
2021/12/22 10:21:15;;;;;;;;;7.00;7.00;;;;;-0.66;42.18;101874.16;5033807;28;8826;-73
2021/12/22 10:24:10;;;;;;;;;9.33;9.33;;;;;-1.23;42.55;101876.19;5034000;28;8860;-73
2021/12/22 10:27:29;;;;;;;;;9.00;9.00;;;;;-1.16;42.73;101871.53;5013486;28;8876;-74
2021/12/22 10:30:34;;;;;;;;;6.33;6.33;;;;;-0.90;41.64;101876.72;5000158;28;8836;-73
2021/12/22 10:33:31;;;;;;;;;12.33;12.33;;;;;-0.88;40.98;101871.06;5012574;28;8863;-73
2021/12/22 10:36:27;;;;;;;;;9.00;9.00;;;;;-0.66;40.59;101882.28;5013396;28;8848;-74
2021/12/22 10:39:30;;;;;;;;;7.00;7.00;;;;;-0.63;41.96;101866.34;5012749;28;8930;-72
2021/12/22 10:42:40;;;;;;;;;12.00;10.00;;;;;-0.63;41.62;101879.13;4999363;28;8836;-72
2021/12/22 10:45:36;;;;;;;;;9.00;9.00;;;;;-1.02;42.19;101862.22;5012537;28;8844;-73
2021/12/22 10:52:00;;;;;;;;;6.00;4.67;;;;;-1.50;41.51;101871.03;5012363;28;8840;-73
2021/12/22 10:55:11;;;;;;;;;6.00;6.00;;;;;-1.59;43.75;101872.38;4999848;28;8882;-73
2021/12/22 10:58:17;;;;;;;;;9.00;7.00;;;;;-1.48;42.64;101878.94;5013126;28;8840;-73
2021/12/22 11:01:17;;;;;;;;;29.67;20.33;;;;;-2.05;41.96;101887.09;5012994;28;8824;-73
2021/12/22 11:04:17;;;;;;;;;6.00;6.00;;;;;-2.70;43.27;101891.75;5011677;28;8868;-71
2021/12/22 11:07:22;;;;;;;;;9.33;9.33;;;;;-2.18;43.19;101889.03;5012195;28;8848;-72
2021/12/22 11:10:23;;;;;;;;;7.00;6.33;;;;;-2.61;43.27;101895.06;5012786;28;8848;-72
2021/12/22 11:13:25;;;;;;;;;10.67;10.67;;;;;-2.27;43.56;101892.00;5014996;28;9582;-72
2021/12/22 11:16:20;;;;;;;;;8.67;7.00;;;;;-1.92;43.39;101898.88;5003384;28;8848;-73
2021/12/22 11:19:16;;;;;;;;;8.33;8.33;;;;;-2.13;43.88;101895.47;5003114;28;8891;-72
2021/12/22 11:22:15;;;;;;;;;7.33;6.67;;;;;-2.48;43.75;101891.47;4989730;28;9050;-72
2021/12/22 11:24:47;;;;;;;;;6.00;6.00;;;;;-2.15;43.57;101904.84;5000248;28;8864;-74
2021/12/22 11:27:43;;;;;;;;;6.00;4.00;;;;;-2.51;42.65;101900.88;5018517;28;8860;-73
2021/12/22 11:30:38;;;;;;;;;6.67;6.67;;;;;-2.30;44.40;101897.88;5030298;28;8846;-74
2021/12/22 11:33:39;;;;;;;;;16.67;14.33;;;;;-1.77;43.52;101896.69;5022587;28;9614;-74
2021/12/22 11:36:35;;;;;;;;;12.33;11.33;;;;;-1.40;43.15;101906.63;5034961;28;9055;-73
2021/12/22 11:39:34;;;;;;;;;7.00;7.00;;;;;-1.46;44.20;101898.53;5017239;28;9025;-74
2021/12/22 11:42:37;;;;;;;;;10.00;10.00;;;;;-1.40;43.40;101908.50;5021810;28;9587;-73
2021/12/22 11:45:37;;;;;;;;;6.00;6.00;;;;;-1.32;42.80;101904.69;5035092;28;8928;-73
2021/12/22 11:48:35;;;;;;;;;7.00;7.00;;;;;-1.38;42.51;101905.56;5036862;28;8870;-73
2021/12/22 11:51:34;;;;;;;;;12.33;12.33;;;;;-1.14;42.39;101907.47;5037023;28;8846;-74
2021/12/22 11:54:30;;;;;;;;;15.00;15.00;;;;;-1.41;42.87;101910.41;5021915;28;8846;-74
2021/12/22 11:57:26;;;;;;;;;10.67;10.67;;;;;-1.34;42.83;101914.94;5037886;28;8850;-74
2021/12/22 12:00:32;;;;;;;;;33.33;25.33;;;;;-1.56;43.42;101920.75;5036327;28;8834;-72
2021/12/22 12:03:36;;;;;;;;;10.00;9.67;;;;;-1.46;43.37;101910.25;5021405;28;8846;-73
2021/12/22 12:06:47;;;;;;;;;30.00;26.67;;;;;-1.71;42.53;101918.34;5016918;28;8848;-74
2021/12/22 12:09:46;;;;;;;;;12.00;12.00;;;;;-2.13;43.29;101919.03;5027378;28;8856;-73
2021/12/22 12:12:48;;;;;;;;;37.33;30.67;;;;;-2.37;44.34;101923.34;5020745;28;8845;-72
2021/12/22 12:22:49;;;;;;;;;6.67;6.67;;;;;-2.27;44.27;101929.13;5032519;28;8831;-73
2021/12/22 12:25:44;;;;;;;;;9.00;9.00;;;;;-2.25;44.63;101921.59;5027260;28;8812;-73
2021/12/22 12:28:49;;;;;;;;;7.00;7.00;;;;;-2.35;44.48;101932.91;5027630;28;8850;-73
2021/12/22 12:31:45;;;;;;;;;7.00;7.00;;;;;-2.69;43.34;101941.34;5039154;28;8909;-73
2021/12/22 12:34:43;;;;;;;;;9.33;9.00;;;;;-2.92;44.12;101944.50;5050385;28;8798;-72
2021/12/22 12:38:06;;;;;;;;;36.00;25.00;;;;;-2.98;43.77;101934.56;5053331;28;8822;-73
2021/12/22 12:41:05;;;;;;;;;10.67;10.67;;;;;-3.10;44.68;101940.59;5033403;28;8857;-73
2021/12/22 12:44:12;;;;;;;;;8.33;8.33;;;;;-3.32;45.06;101931.03;5031533;28;8830;-74
2021/12/22 12:47:20;;;;;;;;;9.67;8.33;;;;;-3.20;44.82;101942.91;5033567;28;8842;-74
2021/12/22 12:50:20;;;;;;;;;10.00;10.00;;;;;-3.37;45.51;101950.59;5031779;28;8857;-74
2021/12/22 12:53:20;;;;;;;;;11.00;11.00;;;;;-3.37;46.29;101944.38;5028841;28;8930;-73
2021/12/22 12:56:18;;;;;;;;;9.33;9.33;;;;;-3.61;46.78;101947.66;5032913;28;8862;-73
2021/12/22 12:59:26;;;;;;;;;9.00;9.00;;;;;-3.93;47.89;101950.91;5021538;28;8977;-74
2021/12/22 13:02:23;;;;;;;;;9.25;9.25;;;;;-4.08;47.99;101955.66;5034521;28;8830;-73
2021/12/22 13:05:18;;;;;;;;;9.00;9.00;;;;;-3.85;47.64;101949.91;5032282;28;9591;-74
2021/12/22 13:08:14;;;;;;;;;16.50;15.50;;;;;-3.64;47.74;101957.00;5019366;28;8838;-74
2021/12/22 13:11:14;;;;;;;;;11.25;9.75;;;;;-3.81;48.27;101956.56;5016778;28;8840;-74
2021/12/22 13:17:43;;;;;;;;;8.50;8.50;;;;;-3.74;48.81;101949.31;5033467;28;8847;-74
2021/12/22 13:20:41;;;;;;;;;15.00;14.50;;;;;-3.81;49.74;101956.56;5032833;28;8877;-74
2021/12/22 13:23:36;;;;;;;;;15.25;15.25;;;;;-3.82;49.23;101948.69;5013066;28;8852;-75
2021/12/22 13:26:32;;;;;;;;;8.75;8.75;;;;;-4.11;50.59;101955.25;4492755;28;15211008;-74
2021/12/22 13:29:27;;;;;;;;;8.75;8.75;;;;;-4.21;50.78;101958.34;5033477;28;8841;-74
2021/12/22 13:32:23;;;;;;;;;9.00;9.00;;;;;-4.36;51.16;101965.75;5027908;28;8872;-74
2021/12/22 13:35:43;;;;;;;;;11.50;11.50;;;;;-4.42;50.77;101967.38;5020978;28;8838;-74
2021/12/22 13:38:44;;;;;;;;;8.75;8.75;;;;;-4.78;51.12;101962.19;5044849;28;8949;-74
2021/12/22 13:41:40;;;;;;;;;7.50;6.50;;;;;-5.14;52.16;101976.66;5032045;28;8858;-75
2021/12/22 13:44:39;;;;;;;;;12.00;12.00;;;;;-4.87;52.06;101975.00;5034450;28;8886;-75
2021/12/22 13:47:35;;;;;;;;;9.75;9.75;;;;;-4.84;52.23;101971.06;5019870;28;8838;-75
2021/12/22 13:50:31;;;;;;;;;9.25;9.25;;;;;-4.76;51.82;101977.16;5033836;28;8876;-76
2021/12/22 13:53:27;;;;;;;;;21.00;18.25;;;;;-4.74;51.67;101984.25;5033136;28;8850;-75
2021/12/22 13:56:23;;;;;;;;;23.25;20.25;;;;;-4.80;52.32;101975.06;5021962;28;8849;-76
2021/12/22 13:59:23;;;;;;;;;9.25;9.25;;;;;-4.87;52.16;101966.91;5033908;28;8849;-76
2021/12/22 14:02:35;;;;;;;;;25.00;25.00;;;;;-5.01;52.65;101975.94;5033639;28;8833;-76
2021/12/22 14:05:31;;;;;;;;;10.50;10.50;;;;;-5.11;53.11;101979.00;5019927;28;8842;-77
2021/12/22 14:08:26;;;;;;;;;14.00;14.00;;;;;-5.14;53.71;101990.16;5007685;28;8901;-76
2021/12/22 14:11:36;;;;;;;;;9.75;9.75;;;;;-5.23;52.94;101993.19;5020862;28;8853;-75
2021/12/22 14:14:35;;;;;;;;;19.25;18.50;;;;;-4.92;52.58;101990.13;5018840;28;8866;-76
2021/12/22 14:17:02;;;;;;;;;8.00;8.00;;;;;-4.90;52.73;101988.09;5016131;28;8849;-75
2021/12/22 14:20:24;;;;;;;;;8.00;6.75;;;;;-5.10;52.68;101998.72;5023338;28;8845;-76
2021/12/22 14:23:23;;;;;;;;;10.00;10.00;;;;;-5.07;52.75;102006.41;5032898;28;9028;-75
2021/12/22 14:26:18;;;;;;;;;13.50;13.50;;;;;-5.27;51.92;102003.56;5032113;28;8861;-75
2021/12/22 14:29:14;;;;;;;;;14.50;12.25;;;;;-5.21;51.80;102012.75;5032157;28;8945;-75
2021/12/22 14:32:10;;;;;;;;;10.50;10.50;;;;;-5.29;52.17;102011.00;4999456;28;8824;-78
2021/12/22 14:35:08;;;;;;;;;10.25;9.75;;;;;-5.31;53.06;102015.75;5020905;28;8948;-76
2021/12/22 14:38:17;;;;;;;;;12.50;12.50;;;;;-5.32;53.72;102023.00;5033863;28;8845;-76
2021/12/22 14:41:12;;;;;;;;;9.00;9.00;;;;;-5.43;53.85;102022.69;5019079;28;8830;-76
2021/12/22 14:44:18;;;;;;;;;12.00;12.00;;;;;-5.24;53.42;102019.34;5018758;28;8858;-78
2021/12/22 14:47:20;;;;;;;;;12.25;12.25;;;;;-5.28;53.91;102020.78;5032373;28;8842;-76
2021/12/22 14:50:15;;;;;;;;;23.00;17.25;;;;;-5.19;53.76;102022.31;5032309;28;8853;-76
2021/12/22 14:53:11;;;;;;;;;24.25;24.25;;;;;-5.44;53.35;102019.19;5032203;28;8846;-76
2021/12/22 14:56:21;;;;;;;;;10.00;10.00;;;;;-5.37;53.68;102030.00;5033559;28;8849;-76
2021/12/22 14:59:18;;;;;;;;;11.00;9.50;;;;;-5.42;53.71;102024.38;5031952;28;8838;-76
2021/12/22 15:02:14;;;;;;;;;15.50;15.50;;;;;-5.44;53.78;102021.03;5032437;28;9629;-76
2021/12/22 15:05:09;;;;;;;;;17.75;15.00;;;;;-5.41;53.89;102032.25;5043359;28;8849;-76
2021/12/22 15:08:05;;;;;;;;;7.50;7.50;;;;;-5.72;53.59;102029.88;5033608;28;8864;-76
2021/12/22 15:11:02;;;;;;;;;13.75;11.50;;;;;-5.53;53.82;102044.56;5013106;28;8832;-76
2021/12/22 15:13:58;;;;;;;;;12.75;10.00;;;;;-5.46;53.72;102052.72;5000701;28;8844;-76
2021/12/22 15:16:53;;;;;;;;;13.50;13.50;;;;;-5.56;53.66;102046.81;5033072;28;8834;-77
2021/12/22 15:19:49;;;;;;;;;9.00;9.00;;;;;-5.45;53.23;102051.69;5030462;28;8841;-77